sensor_id;sensor_type;location;lat;lon;timestamp;pressure;altitude;pressure_sealevel;temperature;humidity
76352;BME280;65179;47.786;19.138;2023-07-13T00:01:28;100121.44;;;23.85;79.71
76352;BME280;65179;47.786;19.138;2023-07-13T00:03:55;100121.87;;;23.78;79.68
76352;BME280;65179;47.786;19.138;2023-07-13T00:06:21;100130.66;;;23.94;79.74
76352;BME280;65179;47.786;19.138;2023-07-13T00:08:47;100085.94;;;24.09;78.28
76352;BME280;65179;47.786;19.138;2023-07-13T00:11:14;100095.09;;;23.96;79.87
76352;BME280;65179;47.786;19.138;2023-07-13T00:13:41;100115.13;;;24.06;79.47
76352;BME280;65179;47.786;19.138;2023-07-13T00:16:08;100116.47;;;23.95;79.63
76352;BME280;65179;47.786;19.138;2023-07-13T00:18:34;100114.63;;;24.04;79.55
76352;BME280;65179;47.786;19.138;2023-07-13T00:20:59;100077.94;;;24.07;78.59
76352;BME280;65179;47.786;19.138;2023-07-13T00:23:41;100077.41;;;24.28;77.73
76352;BME280;65179;47.786;19.138;2023-07-13T00:26:08;100021.75;;;24.33;78.22
76352;BME280;65179;47.786;19.138;2023-07-13T00:28:35;100018.03;;;24.46;77.10
76352;BME280;65179;47.786;19.138;2023-07-13T00:31:00;99988.16;;;24.43;78.10
76352;BME280;65179;47.786;19.138;2023-07-13T00:33:27;99996.91;;;23.97;79.35
76352;BME280;65179;47.786;19.138;2023-07-13T00:35:57;100001.00;;;23.99;79.89
76352;BME280;65179;47.786;19.138;2023-07-13T00:38:23;99985.06;;;24.05;79.93
76352;BME280;65179;47.786;19.138;2023-07-13T00:40:49;100009.94;;;24.19;78.76
76352;BME280;65179;47.786;19.138;2023-07-13T00:43:20;99995.25;;;24.18;79.01
76352;BME280;65179;47.786;19.138;2023-07-13T00:48:14;99912.22;;;23.99;79.51
76352;BME280;65179;47.786;19.138;2023-07-13T00:50:41;99925.22;;;23.60;81.00
76352;BME280;65179;47.786;19.138;2023-07-13T00:53:07;99921.12;;;23.57;81.11
76352;BME280;65179;47.786;19.138;2023-07-13T00:55:34;99905.62;;;23.87;79.99
76352;BME280;65179;47.786;19.138;2023-07-13T00:58:00;99903.78;;;24.04;79.32
76352;BME280;65179;47.786;19.138;2023-07-13T01:00:29;99899.88;;;24.05;79.71
76352;BME280;65179;47.786;19.138;2023-07-13T01:02:55;99895.19;;;24.15;79.03
76352;BME280;65179;47.786;19.138;2023-07-13T01:05:22;99913.31;;;24.21;78.65
76352;BME280;65179;47.786;19.138;2023-07-13T01:07:50;99925.75;;;24.01;79.69
76352;BME280;65179;47.786;19.138;2023-07-13T01:10:19;99925.97;;;24.04;80.17
76352;BME280;65179;47.786;19.138;2023-07-13T01:12:46;99919.13;;;24.10;79.95
76352;BME280;65179;47.786;19.138;2023-07-13T01:17:58;99917.00;;;23.77;80.57
76352;BME280;65179;47.786;19.138;2023-07-13T01:20:24;99909.81;;;24.06;79.66
76352;BME280;65179;47.786;19.138;2023-07-13T01:22:50;99916.75;;;23.95;80.10
76352;BME280;65179;47.786;19.138;2023-07-13T01:25:16;99906.53;;;24.04;80.15
76352;BME280;65179;47.786;19.138;2023-07-13T01:27:41;99909.59;;;23.94;80.30
76352;BME280;65179;47.786;19.138;2023-07-13T01:30:07;99904.81;;;23.86;80.36
76352;BME280;65179;47.786;19.138;2023-07-13T01:32:32;99897.25;;;23.78;80.66
76352;BME280;65179;47.786;19.138;2023-07-13T01:34:59;99896.66;;;23.90;80.59
76352;BME280;65179;47.786;19.138;2023-07-13T01:37:26;99900.94;;;23.96;80.24
76352;BME280;65179;47.786;19.138;2023-07-13T01:39:52;99916.72;;;23.87;80.67
76352;BME280;65179;47.786;19.138;2023-07-13T01:42:18;99913.62;;;23.88;80.89
76352;BME280;65179;47.786;19.138;2023-07-13T01:44:43;99908.09;;;23.88;80.89
76352;BME280;65179;47.786;19.138;2023-07-13T01:47:10;99908.34;;;23.78;80.69
76352;BME280;65179;47.786;19.138;2023-07-13T01:49:35;99906.69;;;23.69;81.12
76352;BME280;65179;47.786;19.138;2023-07-13T01:52:00;99906.41;;;23.79;80.61
76352;BME280;65179;47.786;19.138;2023-07-13T01:54:26;99915.34;;;23.76;80.96
76352;BME280;65179;47.786;19.138;2023-07-13T01:56:51;99924.31;;;23.73;80.86
76352;BME280;65179;47.786;19.138;2023-07-13T01:59:17;99929.41;;;23.79;80.82
76352;BME280;65179;47.786;19.138;2023-07-13T02:01:42;99931.53;;;23.82;80.45
76352;BME280;65179;47.786;19.138;2023-07-13T02:04:07;99928.22;;;23.72;80.75
76352;BME280;65179;47.786;19.138;2023-07-13T02:06:33;99929.50;;;23.66;81.11
76352;BME280;65179;47.786;19.138;2023-07-13T02:08:59;99925.13;;;23.43;81.70
76352;BME280;65179;47.786;19.138;2023-07-13T02:11:24;99914.69;;;23.70;80.51
76352;BME280;65179;47.786;19.138;2023-07-13T02:13:50;99920.34;;;23.65;80.38
76352;BME280;65179;47.786;19.138;2023-07-13T02:16:16;99922.03;;;23.44;81.37
76352;BME280;65179;47.786;19.138;2023-07-13T02:18:41;99927.56;;;23.44;81.52
76352;BME280;65179;47.786;19.138;2023-07-13T02:21:07;99921.75;;;23.54;81.11
76352;BME280;65179;47.786;19.138;2023-07-13T02:23:32;99912.94;;;23.52;81.02
76352;BME280;65179;47.786;19.138;2023-07-13T02:26:01;99918.97;;;23.32;81.90
76352;BME280;65179;47.786;19.138;2023-07-13T02:28:27;99913.16;;;23.33;81.73
76352;BME280;65179;47.786;19.138;2023-07-13T02:30:53;99914.47;;;23.36;81.91
76352;BME280;65179;47.786;19.138;2023-07-13T02:33:18;99915.47;;;23.40;81.47
76352;BME280;65179;47.786;19.138;2023-07-13T02:35:44;99920.00;;;23.36;81.60
76352;BME280;65179;47.786;19.138;2023-07-13T02:38:09;99914.88;;;23.29;81.54
76352;BME280;65179;47.786;19.138;2023-07-13T02:40:34;99910.66;;;23.32;81.78
76352;BME280;65179;47.786;19.138;2023-07-13T02:43:01;99918.41;;;23.21;81.96
76352;BME280;65179;47.786;19.138;2023-07-13T02:45:27;99916.09;;;23.15;82.08
76352;BME280;65179;47.786;19.138;2023-07-13T02:47:52;99917.34;;;23.31;81.68
76352;BME280;65179;47.786;19.138;2023-07-13T02:50:18;99907.41;;;23.30;81.22
76352;BME280;65179;47.786;19.138;2023-07-13T02:52:43;99907.00;;;23.23;81.45
76352;BME280;65179;47.786;19.138;2023-07-13T02:55:09;99915.22;;;23.28;81.08
76352;BME280;65179;47.786;19.138;2023-07-13T02:57:35;99921.41;;;23.11;81.61
76352;BME280;65179;47.786;19.138;2023-07-13T03:00:02;99923.13;;;23.21;81.45
76352;BME280;65179;47.786;19.138;2023-07-13T03:02:30;99930.06;;;23.10;82.06
76352;BME280;65179;47.786;19.138;2023-07-13T03:04:57;99928.53;;;23.04;81.96
76352;BME280;65179;47.786;19.138;2023-07-13T03:07:22;99919.88;;;22.83;82.92
76352;BME280;65179;47.786;19.138;2023-07-13T03:09:48;99913.41;;;22.88;82.49
76352;BME280;65179;47.786;19.138;2023-07-13T03:12:13;99936.84;;;22.68;83.07
76352;BME280;65179;47.786;19.138;2023-07-13T03:14:38;99943.19;;;22.82;82.79
76352;BME280;65179;47.786;19.138;2023-07-13T03:17:04;99949.91;;;22.90;82.33
76352;BME280;65179;47.786;19.138;2023-07-13T03:19:29;99948.91;;;22.86;82.69
76352;BME280;65179;47.786;19.138;2023-07-13T03:21:55;99945.81;;;22.87;83.04
76352;BME280;65179;47.786;19.138;2023-07-13T03:24:20;99959.88;;;22.91;82.63
76352;BME280;65179;47.786;19.138;2023-07-13T03:26:46;99953.19;;;22.92;83.04
76352;BME280;65179;47.786;19.138;2023-07-13T03:29:11;99951.12;;;22.97;82.62
76352;BME280;65179;47.786;19.138;2023-07-13T03:31:37;99946.03;;;22.91;83.06
76352;BME280;65179;47.786;19.138;2023-07-13T03:34:03;99941.34;;;22.64;84.45
76352;BME280;65179;47.786;19.138;2023-07-13T03:36:30;99950.16;;;22.80;83.66
76352;BME280;65179;47.786;19.138;2023-07-13T03:38:59;99935.31;;;22.98;83.29
76352;BME280;65179;47.786;19.138;2023-07-13T03:41:25;99929.56;;;23.08;82.69
76352;BME280;65179;47.786;19.138;2023-07-13T03:43:51;99917.53;;;23.12;82.34
76352;BME280;65179;47.786;19.138;2023-07-13T03:46:17;99910.66;;;23.10;82.21
76352;BME280;65179;47.786;19.138;2023-07-13T03:48:44;99927.66;;;23.17;81.69
76352;BME280;65179;47.786;19.138;2023-07-13T03:51:11;99949.44;;;23.10;81.75
76352;BME280;65179;47.786;19.138;2023-07-13T03:53:41;99943.28;;;23.13;81.88
76352;BME280;65179;47.786;19.138;2023-07-13T03:56:07;99942.91;;;23.06;82.18
76352;BME280;65179;47.786;19.138;2023-07-13T03:58:40;99949.19;;;23.20;82.29
76352;BME280;65179;47.786;19.138;2023-07-13T04:01:07;99954.50;;;23.30;81.55
76352;BME280;65179;47.786;19.138;2023-07-13T04:03:34;99951.62;;;23.35;82.18
76352;BME280;65179;47.786;19.138;2023-07-13T04:06:00;99949.75;;;23.30;82.00
76352;BME280;65179;47.786;19.138;2023-07-13T04:08:31;99947.31;;;23.29;82.30
76352;BME280;65179;47.786;19.138;2023-07-13T04:10:57;99956.13;;;23.31;82.41
76352;BME280;65179;47.786;19.138;2023-07-13T04:13:24;99954.72;;;23.20;81.99
76352;BME280;65179;47.786;19.138;2023-07-13T04:15:50;99962.78;;;23.08;82.76
76352;BME280;65179;47.786;19.138;2023-07-13T04:18:16;99968.44;;;23.03;82.77
76352;BME280;65179;47.786;19.138;2023-07-13T04:20:42;99971.06;;;22.86;84.14
76352;BME280;65179;47.786;19.138;2023-07-13T04:23:07;99981.28;;;22.99;83.77
76352;BME280;65179;47.786;19.138;2023-07-13T04:25:32;99986.22;;;23.02;83.19
76352;BME280;65179;47.786;19.138;2023-07-13T04:27:58;99996.06;;;22.81;85.12
76352;BME280;65179;47.786;19.138;2023-07-13T04:30:23;100010.34;;;22.47;86.34
76352;BME280;65179;47.786;19.138;2023-07-13T04:32:51;100008.06;;;22.35;86.96
76352;BME280;65179;47.786;19.138;2023-07-13T04:35:18;100022.00;;;22.57;85.51
76352;BME280;65179;47.786;19.138;2023-07-13T04:37:45;100022.12;;;22.80;84.71
76352;BME280;65179;47.786;19.138;2023-07-13T04:40:11;100013.84;;;22.80;84.98
76352;BME280;65179;47.786;19.138;2023-07-13T04:42:37;100017.72;;;22.79;85.15
76352;BME280;65179;47.786;19.138;2023-07-13T04:45:05;100026.97;;;22.60;86.00
76352;BME280;65179;47.786;19.138;2023-07-13T04:47:30;100038.09;;;22.55;86.27
76352;BME280;65179;47.786;19.138;2023-07-13T04:49:56;100049.50;;;22.54;87.38
76352;BME280;65179;47.786;19.138;2023-07-13T04:52:23;100061.56;;;22.44;87.53
76352;BME280;65179;47.786;19.138;2023-07-13T04:54:48;100073.56;;;22.53;86.46
76352;BME280;65179;47.786;19.138;2023-07-13T04:57:14;100072.31;;;22.46;86.53
76352;BME280;65179;47.786;19.138;2023-07-13T04:59:39;100076.62;;;22.38;87.68
76352;BME280;65179;47.786;19.138;2023-07-13T05:02:05;100081.56;;;22.55;86.85
76352;BME280;65179;47.786;19.138;2023-07-13T05:04:31;100088.75;;;22.56;86.03
76352;BME280;65179;47.786;19.138;2023-07-13T05:06:56;100087.03;;;22.60;85.83
76352;BME280;65179;47.786;19.138;2023-07-13T05:09:22;100096.03;;;22.52;85.75
76352;BME280;65179;47.786;19.138;2023-07-13T05:11:47;100111.91;;;22.46;85.86
76352;BME280;65179;47.786;19.138;2023-07-13T05:14:12;100120.31;;;22.41;86.27
76352;BME280;65179;47.786;19.138;2023-07-13T05:16:38;100139.00;;;22.31;86.25
76352;BME280;65179;47.786;19.138;2023-07-13T05:19:03;100169.31;;;22.22;86.92
76352;BME280;65179;47.786;19.138;2023-07-13T05:21:29;100189.13;;;22.29;86.54
76352;BME280;65179;47.786;19.138;2023-07-13T05:23:54;100206.41;;;22.03;87.78
76352;BME280;65179;47.786;19.138;2023-07-13T05:26:20;100217.34;;;21.94;88.88
76352;BME280;65179;47.786;19.138;2023-07-13T05:28:46;100232.63;;;21.92;89.17
76352;BME280;65179;47.786;19.138;2023-07-13T05:31:12;100237.37;;;21.86;89.88
76352;BME280;65179;47.786;19.138;2023-07-13T05:33:37;100244.25;;;21.88;89.68
76352;BME280;65179;47.786;19.138;2023-07-13T05:36:03;100264.00;;;21.77;90.12
76352;BME280;65179;47.786;19.138;2023-07-13T05:38:28;100257.06;;;21.79;90.62
76352;BME280;65179;47.786;19.138;2023-07-13T05:40:55;100254.72;;;21.68;90.48
76352;BME280;65179;47.786;19.138;2023-07-13T05:43:21;100256.03;;;21.52;89.87
76352;BME280;65179;47.786;19.138;2023-07-13T05:45:48;100255.09;;;21.38;89.86
76352;BME280;65179;47.786;19.138;2023-07-13T05:48:14;100249.88;;;21.36;89.82
76352;BME280;65179;47.786;19.138;2023-07-13T05:50:40;100243.69;;;21.21;89.54
76352;BME280;65179;47.786;19.138;2023-07-13T05:53:06;100237.25;;;21.06;90.90
76352;BME280;65179;47.786;19.138;2023-07-13T05:55:31;100236.81;;;21.18;90.04
76352;BME280;65179;47.786;19.138;2023-07-13T05:57:57;100247.75;;;21.04;90.66
76352;BME280;65179;47.786;19.138;2023-07-13T06:00:24;100247.69;;;21.09;91.28
76352;BME280;65179;47.786;19.138;2023-07-13T06:02:49;100248.22;;;21.11;90.92
76352;BME280;65179;47.786;19.138;2023-07-13T06:05:15;100239.25;;;20.96;91.90
76352;BME280;65179;47.786;19.138;2023-07-13T06:07:41;100234.50;;;21.01;91.69
76352;BME280;65179;47.786;19.138;2023-07-13T06:10:07;100215.72;;;21.03;90.96
76352;BME280;65179;47.786;19.138;2023-07-13T06:12:32;100206.94;;;20.96;91.26
76352;BME280;65179;47.786;19.138;2023-07-13T06:14:57;100196.34;;;20.80;91.90
76352;BME280;65179;47.786;19.138;2023-07-13T06:17:23;100187.72;;;20.86;92.07
76352;BME280;65179;47.786;19.138;2023-07-13T06:19:48;100189.28;;;20.69;92.62
76352;BME280;65179;47.786;19.138;2023-07-13T06:22:14;100184.44;;;20.84;92.00
76352;BME280;65179;47.786;19.138;2023-07-13T06:24:39;100177.72;;;20.90;91.59
76352;BME280;65179;47.786;19.138;2023-07-13T06:27:05;100169.00;;;20.83;92.31
76352;BME280;65179;47.786;19.138;2023-07-13T06:29:30;100170.22;;;20.96;91.91
76352;BME280;65179;47.786;19.138;2023-07-13T06:31:56;100158.38;;;20.95;91.81
76352;BME280;65179;47.786;19.138;2023-07-13T06:34:22;100145.22;;;20.87;91.80
76352;BME280;65179;47.786;19.138;2023-07-13T06:36:48;100131.09;;;20.89;91.71
76352;BME280;65179;47.786;19.138;2023-07-13T06:39:13;100095.06;;;20.80;91.74
76352;BME280;65179;47.786;19.138;2023-07-13T06:41:39;99965.53;;;20.65;91.92
76352;BME280;65179;47.786;19.138;2023-07-13T06:44:04;99856.84;;;20.42;93.41
76352;BME280;65179;47.786;19.138;2023-07-13T06:46:30;99786.25;;;20.23;94.75
76352;BME280;65179;47.786;19.138;2023-07-13T06:48:55;99717.16;;;19.96;94.35
76352;BME280;65179;47.786;19.138;2023-07-13T06:51:21;99618.28;;;20.08;93.15
76352;BME280;65179;47.786;19.138;2023-07-13T06:53:46;99597.72;;;20.19;91.25
76352;BME280;65179;47.786;19.138;2023-07-13T06:56:12;99639.31;;;20.55;87.87
76352;BME280;65179;47.786;19.138;2023-07-13T06:58:37;99653.25;;;20.77;88.27
76352;BME280;65179;47.786;19.138;2023-07-13T07:01:04;99728.44;;;20.69;90.23
76352;BME280;65179;47.786;19.138;2023-07-13T07:03:30;99793.50;;;20.88;89.23
76352;BME280;65179;47.786;19.138;2023-07-13T07:06:15;99788.78;;;21.07;89.38
76352;BME280;65179;47.786;19.138;2023-07-13T07:08:40;99768.25;;;21.27;87.53
76352;BME280;65179;47.786;19.138;2023-07-13T07:11:11;99767.25;;;21.64;84.86
76352;BME280;65179;47.786;19.138;2023-07-13T07:13:36;99786.91;;;21.76;84.79
76352;BME280;65179;47.786;19.138;2023-07-13T07:16:02;99801.44;;;21.68;86.02
76352;BME280;65179;47.786;19.138;2023-07-13T07:18:27;99831.53;;;21.69;90.53
76352;BME280;65179;47.786;19.138;2023-07-13T07:20:52;99908.06;;;22.01;88.26
76352;BME280;65179;47.786;19.138;2023-07-13T07:23:18;99945.25;;;22.09;88.78
76352;BME280;65179;47.786;19.138;2023-07-13T07:25:44;99943.62;;;22.21;86.77
76352;BME280;65179;47.786;19.138;2023-07-13T07:28:09;99972.41;;;22.34;85.92
76352;BME280;65179;47.786;19.138;2023-07-13T07:30:35;99993.03;;;22.41;85.65
76352;BME280;65179;47.786;19.138;2023-07-13T07:33:01;99979.06;;;22.46;84.54
76352;BME280;65179;47.786;19.138;2023-07-13T07:35:26;99993.22;;;22.72;85.13
76352;BME280;65179;47.786;19.138;2023-07-13T07:37:52;99996.38;;;22.93;84.18
76352;BME280;65179;47.786;19.138;2023-07-13T07:40:18;100010.16;;;23.20;83.66
76352;BME280;65179;47.786;19.138;2023-07-13T07:42:43;100013.84;;;23.15;81.38
76352;BME280;65179;47.786;19.138;2023-07-13T07:45:09;100017.53;;;23.24;82.28
76352;BME280;65179;47.786;19.138;2023-07-13T07:47:36;100020.03;;;23.12;82.28
76352;BME280;65179;47.786;19.138;2023-07-13T07:50:02;100039.25;;;23.31;81.41
76352;BME280;65179;47.786;19.138;2023-07-13T07:52:27;100036.06;;;23.02;80.79
76352;BME280;65179;47.786;19.138;2023-07-13T07:54:53;100035.22;;;23.01;80.90
76352;BME280;65179;47.786;19.138;2023-07-13T07:57:21;100032.97;;;22.90;81.56
76352;BME280;65179;47.786;19.138;2023-07-13T07:59:48;100036.69;;;22.85;81.33
76352;BME280;65179;47.786;19.138;2023-07-13T08:02:14;100046.91;;;23.12;80.75
76352;BME280;65179;47.786;19.138;2023-07-13T08:04:39;100047.91;;;23.16;81.28
76352;BME280;65179;47.786;19.138;2023-07-13T08:07:05;100045.03;;;23.21;80.84
76352;BME280;65179;47.786;19.138;2023-07-13T08:09:30;100042.69;;;23.14;81.20
76352;BME280;65179;47.786;19.138;2023-07-13T08:11:56;100050.91;;;23.19;80.66
76352;BME280;65179;47.786;19.138;2023-07-13T08:14:21;100061.00;;;23.51;79.67
76352;BME280;65179;47.786;19.138;2023-07-13T08:16:46;100058.38;;;23.68;79.10
76352;BME280;65179;47.786;19.138;2023-07-13T08:19:12;100056.09;;;23.70;78.27
76352;BME280;65179;47.786;19.138;2023-07-13T08:21:37;100054.72;;;24.03;78.72
76352;BME280;65179;47.786;19.138;2023-07-13T08:24:03;100053.13;;;24.42;77.14
76352;BME280;65179;47.786;19.138;2023-07-13T08:26:29;100044.84;;;24.50;76.87
76352;BME280;65179;47.786;19.138;2023-07-13T08:28:54;100046.84;;;24.58;76.58
76352;BME280;65179;47.786;19.138;2023-07-13T08:31:19;100048.34;;;24.64;76.86
76352;BME280;65179;47.786;19.138;2023-07-13T08:33:45;100042.81;;;24.73;75.72
76352;BME280;65179;47.786;19.138;2023-07-13T08:36:11;100052.34;;;24.80;75.11
76352;BME280;65179;47.786;19.138;2023-07-13T08:38:36;100050.47;;;25.15;74.28
76352;BME280;65179;47.786;19.138;2023-07-13T08:41:11;100054.72;;;25.38;73.37
76352;BME280;65179;47.786;19.138;2023-07-13T08:43:37;100059.03;;;25.62;72.62
76352;BME280;65179;47.786;19.138;2023-07-13T08:46:25;100061.59;;;25.32;71.66
76352;BME280;65179;47.786;19.138;2023-07-13T08:48:58;100068.78;;;25.16;73.86
76352;BME280;65179;47.786;19.138;2023-07-13T08:56:50;100071.81;;;24.89;72.68
76352;BME280;65179;47.786;19.138;2023-07-13T08:59:20;100071.47;;;24.91;72.88
76352;BME280;65179;47.786;19.138;2023-07-13T09:04:23;100065.50;;;25.14;71.72
76352;BME280;65179;47.786;19.138;2023-07-13T09:12:14;100072.38;;;25.17;71.42
76352;BME280;65179;47.786;19.138;2023-07-13T09:14:52;100072.09;;;25.35;71.56
76352;BME280;65179;47.786;19.138;2023-07-13T09:17:20;100066.88;;;25.77;71.07
76352;BME280;65179;47.786;19.138;2023-07-13T09:19:54;100071.94;;;26.09;69.75
76352;BME280;65179;47.786;19.138;2023-07-13T09:22:22;100070.41;;;26.37;69.07
76352;BME280;65179;47.786;19.138;2023-07-13T09:27:39;100072.56;;;26.78;66.52
76352;BME280;65179;47.786;19.138;2023-07-13T09:30:16;100089.31;;;27.07;66.08
76352;BME280;65179;47.786;19.138;2023-07-13T09:32:51;100082.56;;;27.08;65.48
76352;BME280;65179;47.786;19.138;2023-07-13T09:35:20;100082.31;;;27.51;64.72
76352;BME280;65179;47.786;19.138;2023-07-13T09:37:47;100095.31;;;27.47;65.05
76352;BME280;65179;47.786;19.138;2023-07-13T09:40:35;100105.22;;;27.07;63.30
76352;BME280;65179;47.786;19.138;2023-07-13T09:43:02;100092.22;;;27.40;63.21
76352;BME280;65179;47.786;19.138;2023-07-13T09:45:33;100089.06;;;27.50;63.52
76352;BME280;65179;47.786;19.138;2023-07-13T09:48:19;100083.94;;;27.23;62.60
76352;BME280;65179;47.786;19.138;2023-07-13T09:50:45;100084.47;;;27.16;63.41
76352;BME280;65179;47.786;19.138;2023-07-13T09:53:13;100087.03;;;27.30;63.19
76352;BME280;65179;47.786;19.138;2023-07-13T09:55:39;100075.38;;;27.77;60.96
76352;BME280;65179;47.786;19.138;2023-07-13T09:58:20;100083.34;;;28.20;60.40
76352;BME280;65179;47.786;19.138;2023-07-13T10:00:59;100077.19;;;28.27;59.75
76352;BME280;65179;47.786;19.138;2023-07-13T10:03:28;100091.44;;;28.46;59.06
76352;BME280;65179;47.786;19.138;2023-07-13T10:06:01;100092.00;;;28.84;59.00
76352;BME280;65179;47.786;19.138;2023-07-13T10:08:35;100088.53;;;28.54;57.90
76352;BME280;65179;47.786;19.138;2023-07-13T10:11:08;100085.44;;;28.56;57.56
76352;BME280;65179;47.786;19.138;2023-07-13T10:13:36;100089.34;;;28.76;57.65
76352;BME280;65179;47.786;19.138;2023-07-13T10:16:04;100076.28;;;28.80;57.20
76352;BME280;65179;47.786;19.138;2023-07-13T10:18:36;100092.00;;;28.84;55.75
76352;BME280;65179;47.786;19.138;2023-07-13T10:21:12;100084.81;;;28.95;56.30
76352;BME280;65179;47.786;19.138;2023-07-13T10:23:39;100079.19;;;29.07;55.43
76352;BME280;65179;47.786;19.138;2023-07-13T10:26:10;100082.09;;;28.99;55.31
76352;BME280;65179;47.786;19.138;2023-07-13T10:28:39;100089.69;;;29.10;55.62
76352;BME280;65179;47.786;19.138;2023-07-13T10:31:12;100093.06;;;29.16;54.05
76352;BME280;65179;47.786;19.138;2023-07-13T10:33:38;100082.03;;;29.59;54.33
76352;BME280;65179;47.786;19.138;2023-07-13T10:38:39;100093.97;;;29.44;54.28
76352;BME280;65179;47.786;19.138;2023-07-13T10:41:14;100094.63;;;29.65;53.55
76352;BME280;65179;47.786;19.138;2023-07-13T10:43:50;100095.25;;;29.35;52.61
76352;BME280;65179;47.786;19.138;2023-07-13T10:46:19;100091.31;;;29.36;52.89
76352;BME280;65179;47.786;19.138;2023-07-13T10:48:50;100090.34;;;29.56;53.50
76352;BME280;65179;47.786;19.138;2023-07-13T10:51:18;100090.75;;;29.70;53.10
76352;BME280;65179;47.786;19.138;2023-07-13T10:53:48;100084.75;;;29.95;52.16
76352;BME280;65179;47.786;19.138;2023-07-13T10:56:33;100084.50;;;30.01;52.70
76352;BME280;65179;47.786;19.138;2023-07-13T10:59:18;100108.22;;;29.91;52.88
76352;BME280;65179;47.786;19.138;2023-07-13T11:02:00;100095.75;;;29.88;50.60
76352;BME280;65179;47.786;19.138;2023-07-13T11:04:42;100094.56;;;30.17;50.32
76352;BME280;65179;47.786;19.138;2023-07-13T11:09:53;100090.69;;;30.22;51.51
76352;BME280;65179;47.786;19.138;2023-07-13T11:19:53;100067.25;;;30.42;49.79
76352;BME280;65179;47.786;19.138;2023-07-13T11:22:24;100054.81;;;30.55;49.43
76352;BME280;65179;47.786;19.138;2023-07-13T11:24:59;100067.00;;;30.62;49.28
76352;BME280;65179;47.786;19.138;2023-07-13T11:27:36;100068.72;;;30.67;49.12
76352;BME280;65179;47.786;19.138;2023-07-13T11:35:35;100059.12;;;30.84;48.25
76352;BME280;65179;47.786;19.138;2023-07-13T11:38:02;100063.50;;;30.97;47.79
76352;BME280;65179;47.786;19.138;2023-07-13T11:40:29;100065.31;;;30.58;49.50
76352;BME280;65179;47.786;19.138;2023-07-13T11:43:02;100080.84;;;30.28;49.91
76352;BME280;65179;47.786;19.138;2023-07-13T11:45:27;100087.53;;;30.51;49.01
76352;BME280;65179;47.786;19.138;2023-07-13T11:47:54;100085.38;;;30.60;48.49
76352;BME280;65179;47.786;19.138;2023-07-13T11:50:23;100081.56;;;30.68;48.23
76352;BME280;65179;47.786;19.138;2023-07-13T11:52:50;100084.44;;;30.56;47.80
76352;BME280;65179;47.786;19.138;2023-07-13T11:55:20;100078.13;;;30.59;48.14
76352;BME280;65179;47.786;19.138;2023-07-13T11:57:52;100080.31;;;30.81;47.62
76352;BME280;65179;47.786;19.138;2023-07-13T12:00:22;100069.62;;;30.71;47.36
76352;BME280;65179;47.786;19.138;2023-07-13T12:02:51;100078.78;;;30.25;48.12
76352;BME280;65179;47.786;19.138;2023-07-13T12:05:21;100060.50;;;30.43;48.12
76352;BME280;65179;47.786;19.138;2023-07-13T12:07:48;100067.81;;;30.32;48.99
76352;BME280;65179;47.786;19.138;2023-07-13T12:10:28;100078.22;;;30.62;47.91
76352;BME280;65179;47.786;19.138;2023-07-13T12:12:55;100073.06;;;30.80;47.01
76352;BME280;65179;47.786;19.138;2023-07-13T12:15:22;100065.28;;;30.42;47.67
76352;BME280;65179;47.786;19.138;2023-07-13T12:17:49;100070.50;;;30.01;48.57
76352;BME280;65179;47.786;19.138;2023-07-13T12:20:23;100059.75;;;30.03;49.27
76352;BME280;65179;47.786;19.138;2023-07-13T12:22:50;100061.94;;;30.52;47.69
76352;BME280;65179;47.786;19.138;2023-07-13T12:25:16;100057.16;;;30.53;46.95
76352;BME280;65179;47.786;19.138;2023-07-13T12:27:47;100058.53;;;30.90;47.10
76352;BME280;65179;47.786;19.138;2023-07-13T12:30:39;100064.75;;;30.99;47.11
76352;BME280;65179;47.786;19.138;2023-07-13T12:33:11;100062.00;;;31.18;46.68
76352;BME280;65179;47.786;19.138;2023-07-13T12:35:44;100067.78;;;31.60;46.04
76352;BME280;65179;47.786;19.138;2023-07-13T12:38:11;100061.56;;;31.16;47.04
76352;BME280;65179;47.786;19.138;2023-07-13T12:40:37;100056.06;;;31.39;45.78
76352;BME280;65179;47.786;19.138;2023-07-13T12:43:04;100041.50;;;31.14;46.90
76352;BME280;65179;47.786;19.138;2023-07-13T12:45:32;100061.41;;;31.09;46.62
76352;BME280;65179;47.786;19.138;2023-07-13T12:48:12;100052.88;;;31.06;46.53
76352;BME280;65179;47.786;19.138;2023-07-13T12:50:42;100047.03;;;30.64;47.02
76352;BME280;65179;47.786;19.138;2023-07-13T12:53:21;100046.12;;;30.91;46.89
76352;BME280;65179;47.786;19.138;2023-07-13T12:55:55;100055.34;;;31.07;46.98
76352;BME280;65179;47.786;19.138;2023-07-13T12:58:38;100043.22;;;31.03;46.96
76352;BME280;65179;47.786;19.138;2023-07-13T13:01:05;100049.56;;;31.00;46.01
76352;BME280;65179;47.786;19.138;2023-07-13T13:03:35;100056.44;;;31.03;46.10
76352;BME280;65179;47.786;19.138;2023-07-13T13:08:41;100039.31;;;30.45;46.89
76352;BME280;65179;47.786;19.138;2023-07-13T13:11:09;100039.69;;;30.91;46.44
76352;BME280;65179;47.786;19.138;2023-07-13T13:13:35;100054.09;;;30.58;46.20
76352;BME280;65179;47.786;19.138;2023-07-13T13:16:14;100046.50;;;30.90;45.45
76352;BME280;65179;47.786;19.138;2023-07-13T13:18:42;100039.47;;;31.15;45.95
76352;BME280;65179;47.786;19.138;2023-07-13T13:21:10;100032.41;;;30.86;44.58
76352;BME280;65179;47.786;19.138;2023-07-13T13:23:36;100030.19;;;30.95;45.09
76352;BME280;65179;47.786;19.138;2023-07-13T13:26:02;100036.87;;;31.06;44.38
76352;BME280;65179;47.786;19.138;2023-07-13T13:28:31;100033.97;;;31.18;43.79